Peotone Weather
Station Historical Data
 
Daily Summary for October 21, 2014 Units:  English    Metric   Both
« Previous Day
Next Day »
Daily Weekly Monthly Yearly Custom
  Current: High: Low: Average:
Temperature: 50.1 °F 50.5 °F 46.3 °F 47.5 °F
Dew Point: 42.2 °F 46.2 °F 42.2 °F 44.1 °F
Humidity: 74% 91% 74% 88%
Wind Speed: 9.2mph 13.8mph 0.0mph 3.3mph
Wind Gust: 10.3mph 13.8mph - -
WindNNE - - South
Pressure: 30.15 in 30.15 in 29.99 in -
Precipitation: 0.00 in      
Historical Graphs
 
 
Tabular Data for October 21, 2014
Time Temperature Dew Point Pressure Wind Wind Speed Wind Gust Humidity Rainfall Rate (Hourly) solar Conditions
00:04 50.5 °F 46.2 °F 29.99 in NE 4.6 mph 4.6 mph 85% 0.00 in 0.00 W/m2
00:09 50.4 °F 46.1 °F 29.99 in NE 1.1 mph 4.6 mph 85% 0.00 in 0.00 W/m2
00:14 50.4 °F 46.1 °F 29.99 in NE 3.4 mph 3.4 mph 85% 0.00 in 0.00 W/m2
00:19 50.2 °F 45.9 °F 29.99 in NE 2.3 mph 4.6 mph 85% 0.00 in 0.00 W/m2
00:24 50.1 °F 45.8 °F 29.99 in NE 3.4 mph 5.8 mph 85% 0.00 in 0.00 W/m2
00:29 50.0 °F 45.7 °F 29.99 in NE 2.3 mph 4.6 mph 85% 0.00 in 0.00 W/m2
00:34 49.9 °F 45.6 °F 29.99 in NE 2.3 mph 5.8 mph 85% 0.00 in 0.00 W/m2
00:40 49.7 °F 45.4 °F 29.99 in NE 1.1 mph 5.8 mph 85% 0.00 in 0.00 W/m2
00:45 49.6 °F 45.0 °F 29.99 in NE 4.6 mph 6.9 mph 84% 0.00 in 0.00 W/m2
00:50 49.5 °F 44.9 °F 29.99 in NE 1.1 mph 5.8 mph 84% 0.00 in 0.00 W/m2
00:55 49.2 °F 44.6 °F 29.99 in NE 1.1 mph 4.6 mph 84% 0.00 in 0.00 W/m2
01:00 49.0 °F 44.7 °F 30.00 in NE 2.3 mph 5.8 mph 85% 0.00 in 0.00 W/m2
01:05 48.5 °F 44.2 °F 30.00 in NE 2.3 mph 4.6 mph 85% 0.00 in 0.00 W/m2
01:10 48.1 °F 43.8 °F 30.00 in NE 3.4 mph 4.6 mph 85% 0.00 in 0.00 W/m2
01:15 47.7 °F 43.7 °F 30.00 in NE 3.4 mph 4.6 mph 86% 0.00 in 0.00 W/m2
01:21 47.4 °F 43.4 °F 30.00 in NE 1.1 mph 4.6 mph 86% 0.00 in 0.00 W/m2
01:26 47.0 °F 43.3 °F 30.00 in Calm   4.6 mph 87% 0.00 in 0.00 W/m2
01:31 46.8 °F 43.4 °F 30.00 in NE 2.3 mph 4.6 mph 88% 0.00 in 0.00 W/m2
01:36 46.5 °F 43.1 °F 30.00 in NE 3.4 mph 5.8 mph 88% 0.00 in 0.00 W/m2
01:41 46.3 °F 43.2 °F 30.00 in NE 3.4 mph 3.4 mph 89% 0.00 in 0.00 W/m2
01:46 46.3 °F 43.2 °F 30.00 in NE 3.4 mph 4.6 mph 89% 0.00 in 0.00 W/m2
01:51 46.3 °F 43.2 °F 30.00 in NE 2.3 mph 4.6 mph 89% 0.00 in 0.00 W/m2
01:56 46.4 °F 43.6 °F 30.00 in Calm   1.1 mph 90% 0.00 in 0.00 W/m2
02:02 46.6 °F 43.8 °F 30.01 in NE 2.3 mph 3.4 mph 90% 0.00 in 0.00 W/m2
02:07 46.8 °F 44.0 °F 30.01 in Calm   1.1 mph 90% 0.00 in 0.00 W/m2
02:12 46.9 °F 44.1 °F 30.01 in Calm   2.3 mph 90% 0.00 in 0.00 W/m2
02:17 47.0 °F 44.2 °F 30.01 in NE 2.3 mph 4.6 mph 90% 0.00 in 0.00 W/m2
02:22 47.0 °F 44.2 °F 30.01 in Calm   1.1 mph 90% 0.00 in 0.00 W/m2
02:27 47.0 °F 44.2 °F 30.01 in NE 1.1 mph 3.4 mph 90% 0.00 in 0.00 W/m2
02:32 46.9 °F 44.1 °F 30.01 in NE 1.1 mph 2.3 mph 90% 0.00 in 0.00 W/m2
02:37 46.9 °F 44.1 °F 30.01 in NE 2.3 mph 4.6 mph 90% 0.00 in 0.00 W/m2
02:43 46.9 °F 44.1 °F 30.01 in NE 2.3 mph 3.4 mph 90% 0.00 in 0.00 W/m2
02:48 47.0 °F 44.2 °F 30.01 in NE 2.3 mph 2.3 mph 90% 0.00 in 0.00 W/m2
02:53 47.0 °F 44.2 °F 30.01 in NE 1.1 mph 2.3 mph 90% 0.00 in 0.00 W/m2
02:58 46.9 °F 44.1 °F 30.01 in NE 1.1 mph 3.4 mph 90% 0.00 in 0.00 W/m2
03:03 46.8 °F 44.0 °F 30.01 in NE 1.1 mph 2.3 mph 90% 0.00 in 0.00 W/m2
03:08 46.6 °F 43.8 °F 30.01 in Calm   3.4 mph 90% 0.00 in 0.00 W/m2
03:13 46.5 °F 43.7 °F 30.01 in NE 2.3 mph 2.3 mph 90% 0.00 in 0.00 W/m2
03:18 46.4 °F 43.6 °F 30.01 in Calm   1.1 mph 90% 0.00 in 0.00 W/m2
03:24 46.3 °F 43.8 °F 30.01 in Calm   2.3 mph 91% 0.00 in 0.00 W/m2
03:29 46.3 °F 43.8 °F 30.01 in NE 1.1 mph 2.3 mph 91% 0.00 in 0.00 W/m2
03:34 46.3 °F 43.8 °F 30.01 in NE 1.1 mph 2.3 mph 91% 0.00 in 0.00 W/m2
03:39 46.4 °F 43.9 °F 30.01 in Calm   2.3 mph 91% 0.00 in 0.00 W/m2
03:44 46.4 °F 43.9 °F 30.01 in NE 1.1 mph 2.3 mph 91% 0.00 in 0.00 W/m2
03:49 46.5 °F 44.0 °F 30.02 in Calm   2.3 mph 91% 0.00 in 0.00 W/m2
03:54 46.7 °F 44.2 °F 30.02 in Calm   3.4 mph 91% 0.00 in 0.00 W/m2
03:59 46.8 °F 44.3 °F 30.02 in Calm   3.4 mph 91% 0.00 in 0.00 W/m2
04:04 47.0 °F 44.5 °F 30.02 in NE 1.1 mph 2.3 mph 91% 0.00 in 0.00 W/m2
04:09 47.1 °F 44.6 °F 30.02 in NE 1.1 mph 3.4 mph 91% 0.00 in 0.00 W/m2
04:15 47.2 °F 44.7 °F 30.02 in Calm   4.6 mph 91% 0.00 in 0.00 W/m2
04:20 47.1 °F 44.6 °F 30.02 in NE 2.3 mph 4.6 mph 91% 0.00 in 0.00 W/m2
04:25 46.9 °F 44.1 °F 30.03 in NE 2.3 mph 3.4 mph 90% 0.00 in 0.00 W/m2
04:30 46.7 °F 43.9 °F 30.03 in NE 2.3 mph 3.4 mph 90% 0.00 in 0.00 W/m2
04:35 46.6 °F 43.8 °F 30.03 in NE 1.1 mph 3.4 mph 90% 0.00 in 0.00 W/m2
04:40 46.5 °F 44.0 °F 30.03 in NE 1.1 mph 3.4 mph 91% 0.00 in 0.00 W/m2
04:45 46.5 °F 44.0 °F 30.04 in Calm   3.4 mph 91% 0.00 in 0.00 W/m2
04:50 46.5 °F 44.0 °F 30.04 in NE 2.3 mph 3.4 mph 91% 0.00 in 0.00 W/m2
04:56 46.6 °F 44.1 °F 30.04 in NE 3.4 mph 4.6 mph 91% 0.00 in 0.00 W/m2
05:01 46.7 °F 44.2 °F 30.04 in NE 2.3 mph 3.4 mph 91% 0.00 in 0.00 W/m2
05:06 46.9 °F 44.4 °F 30.04 in NE 2.3 mph 4.6 mph 91% 0.00 in 0.00 W/m2
05:11 47.0 °F 44.5 °F 30.04 in NE 2.3 mph 4.6 mph 91% 0.00 in 0.00 W/m2
05:16 47.0 °F 44.5 °F 30.05 in Calm   2.3 mph 91% 0.00 in 0.00 W/m2
05:21 47.1 °F 44.6 °F 30.05 in NE 2.3 mph 3.4 mph 91% 0.00 in 0.00 W/m2
05:26 47.2 °F 44.7 °F 30.05 in NE 3.4 mph 3.4 mph 91% 0.00 in 0.00 W/m2
05:31 47.3 °F 44.8 °F 30.05 in NE 5.8 mph 6.9 mph 91% 0.00 in 0.00 W/m2
05:36 47.4 °F 44.9 °F 30.06 in NE 3.4 mph 5.8 mph 91% 0.00 in 0.00 W/m2
05:41 47.4 °F 44.9 °F 30.06 in NE 3.4 mph 3.4 mph 91% 0.00 in 0.00 W/m2
05:46 47.5 °F 44.7 °F 30.06 in NNW 2.3 mph 4.6 mph 90% 0.00 in 0.00 W/m2
05:51 47.5 °F 44.7 °F 30.06 in NNW 1.1 mph 3.4 mph 90% 0.00 in 0.00 W/m2
05:56 47.5 °F 44.7 °F 30.06 in NNW 2.3 mph 3.4 mph 90% 0.00 in 0.00 W/m2
06:01 47.5 °F 44.7 °F 30.06 in NNW 1.1 mph 1.1 mph 90% 0.00 in 0.00 W/m2
06:07 47.5 °F 44.7 °F 30.06 in NNW 2.3 mph 2.3 mph 90% 0.00 in 0.00 W/m2
06:12 47.4 °F 44.6 °F 30.07 in Calm   3.4 mph 90% 0.00 in 0.00 W/m2
06:17 47.4 °F 44.6 °F 30.07 in NNW 3.4 mph 4.6 mph 90% 0.00 in 0.00 W/m2
06:22 47.4 °F 44.6 °F 30.07 in NNW 2.3 mph 2.3 mph 90% 0.00 in 0.00 W/m2
06:27 47.4 °F 44.6 °F 30.07 in NNW 3.4 mph 4.6 mph 90% 0.00 in 0.00 W/m2
06:32 47.3 °F 44.5 °F 30.07 in NNW 1.1 mph 5.8 mph 90% 0.00 in 0.00 W/m2
06:37 47.3 °F 44.5 °F 30.08 in NNW 4.6 mph 5.8 mph 90% 0.00 in 0.00 W/m2
06:42 47.2 °F 44.4 °F 30.08 in NNW 2.3 mph 5.8 mph 90% 0.00 in 0.00 W/m2
06:48 47.2 °F 44.4 °F 30.08 in NNW 3.4 mph 5.8 mph 90% 0.00 in 0.00 W/m2
06:53 47.1 °F 44.3 °F 30.08 in NNW 2.3 mph 5.8 mph 90% 0.00 in 0.00 W/m2
06:58 47.0 °F 44.2 °F 30.08 in NNW 3.4 mph 5.8 mph 90% 0.00 in 0.00 W/m2
07:03 46.9 °F 44.1 °F 30.09 in NNW 3.4 mph 5.8 mph 90% 0.00 in 0.00 W/m2
07:08 46.9 °F 44.1 °F 30.09 in NNW 3.4 mph 3.4 mph 90% 0.00 in 0.00 W/m2
07:13 46.9 °F 44.1 °F 30.09 in NNW 1.1 mph 5.8 mph 90% 0.00 in 0.00 W/m2
07:18 46.9 °F 44.1 °F 30.09 in NNW 4.6 mph 5.8 mph 90% 0.00 in 7.00 W/m2
07:23 46.9 °F 44.1 °F 30.09 in NNW 5.8 mph 5.8 mph 90% 0.00 in 11.00 W/m2
07:29 46.8 °F 44.0 °F 30.10 in NNW 3.4 mph 6.9 mph 90% 0.00 in 14.00 W/m2
07:34 46.9 °F 44.1 °F 30.10 in NNW 2.3 mph 6.9 mph 90% 0.00 in 19.00 W/m2
07:39 46.9 °F 44.1 °F 30.10 in NNW 4.6 mph 5.8 mph 90% 0.00 in 25.00 W/m2
07:44 47.0 °F 44.2 °F 30.10 in NNW 5.8 mph 10.3 mph 90% 0.00 in 21.00 W/m2
07:49 47.0 °F 44.2 °F 30.11 in North 4.6 mph 9.2 mph 90% 0.00 in 16.00 W/m2
07:54 46.9 °F 44.1 °F 30.11 in NNW 5.8 mph 10.3 mph 90% 0.00 in 63.00 W/m2
07:59 46.9 °F 44.1 °F 30.12 in NNW 11.5 mph 11.5 mph 90% 0.00 in 44.00 W/m2
08:04 47.1 °F 44.3 °F 30.12 in NNW 6.9 mph 10.3 mph 90% 0.00 in 42.00 W/m2
08:09 47.2 °F 44.1 °F 30.12 in NNW 8.1 mph 12.6 mph 89% 0.00 in 46.00 W/m2
08:15 47.3 °F 44.2 °F 30.12 in NNW 3.4 mph 10.3 mph 89% 0.00 in 46.00 W/m2
08:20 47.4 °F 44.3 °F 30.12 in North 6.9 mph 10.3 mph 89% 0.00 in 44.00 W/m2
08:25 47.6 °F 44.2 °F 30.12 in NNW 6.9 mph 10.3 mph 88% 0.00 in 49.00 W/m2
08:30 47.7 °F 44.0 °F 30.12 in NW 6.9 mph 9.2 mph 87% 0.00 in 54.00 W/m2
08:35 47.8 °F 44.1 °F 30.13 in NW 5.8 mph 11.5 mph 87% 0.00 in 51.00 W/m2
08:40 47.9 °F 43.9 °F 30.13 in NNW 5.8 mph 11.5 mph 86% 0.00 in 54.00 W/m2
08:45 48.1 °F 43.5 °F 30.13 in NNW 12.6 mph 12.6 mph 84% 0.00 in 70.00 W/m2
08:51 48.3 °F 43.4 °F 30.13 in NNW 9.2 mph 12.6 mph 83% 0.00 in 83.00 W/m2
08:56 48.5 °F 43.6 °F 30.13 in NNW 5.8 mph 11.5 mph 83% 0.00 in 83.00 W/m2
09:01 48.6 °F 43.4 °F 30.14 in NNW 5.8 mph 13.8 mph 82% 0.00 in 81.00 W/m2
09:06 48.7 °F 43.5 °F 30.14 in NNW 11.5 mph 12.6 mph 82% 0.00 in 79.00 W/m2
09:11 48.7 °F 43.5 °F 30.14 in NNE 10.3 mph 11.5 mph 82% 0.00 in 81.00 W/m2
09:16 48.6 °F 43.0 °F 30.14 in NNW 8.1 mph 12.6 mph 81% 0.00 in 79.00 W/m2
09:21 48.6 °F 43.0 °F 30.14 in North 2.3 mph 13.8 mph 81% 0.00 in 79.00 W/m2
09:26 48.6 °F 42.7 °F 30.14 in NNW 8.1 mph 12.6 mph 80% 0.00 in 69.00 W/m2
09:31 48.6 °F 42.7 °F 30.14 in NNW 12.6 mph 12.6 mph 80% 0.00 in 69.00 W/m2
09:36 48.6 °F 42.7 °F 30.14 in North 9.2 mph 9.2 mph 80% 0.00 in 88.00 W/m2
09:41 48.8 °F 42.6 °F 30.15 in North 3.4 mph 8.1 mph 79% 0.00 in 121.00 W/m2
09:47 49.1 °F 42.9 °F 30.15 in NNW 1.1 mph 4.6 mph 79% 0.00 in 149.00 W/m2
09:51 49.5 °F 42.9 °F 30.15 in NW 8.1 mph 10.3 mph 78% 0.00 in 162.00 W/m2
09:57 49.9 °F 42.3 °F 30.15 in NNE 13.8 mph 13.8 mph 75% 0.00 in 42.00 W/m2
10:02 50.1 °F 42.2 °F 30.15 in NNE 9.2 mph 10.3 mph 74% 0.00 in 44.00 W/m2
Peotone Weather Data
Compliments of Weather Underground